createdAt,value
2023-01-13T00:01:31.252Z,2.00
2023-01-13T00:03:59.531Z,2.15
2023-01-13T00:06:28.697Z,1.60
2023-01-13T00:08:57.102Z,1.60
2023-01-13T00:11:26.927Z,1.48
2023-01-13T00:13:55.520Z,1.65
2023-01-13T00:16:23.798Z,2.00
2023-01-13T00:18:54.868Z,1.90
2023-01-13T00:21:25.552Z,1.80
2023-01-13T00:23:55.620Z,1.95
2023-01-13T00:26:27.021Z,1.90
2023-01-13T00:29:00.141Z,1.55
2023-01-13T00:31:30.773Z,1.80
2023-01-13T00:34:03.257Z,1.60
2023-01-13T00:36:32.984Z,1.65
2023-01-13T00:39:01.459Z,1.88
2023-01-13T00:41:50.605Z,1.60
2023-01-13T00:44:19.000Z,1.90
2023-01-13T00:46:47.520Z,1.58
2023-01-13T00:49:15.844Z,1.95
2023-01-13T00:51:44.120Z,1.88
2023-01-13T00:54:12.495Z,1.90
2023-01-13T00:56:41.477Z,1.83
2023-01-13T00:59:13.007Z,1.58
2023-01-13T01:01:42.716Z,1.65
2023-01-13T01:04:12.039Z,1.92
2023-01-13T01:06:40.410Z,1.88
2023-01-13T01:09:08.720Z,2.00
2023-01-13T01:11:37.328Z,1.85
2023-01-13T01:14:05.960Z,2.10
2023-01-13T01:16:35.392Z,1.95
2023-01-13T01:19:04.791Z,2.10
2023-01-13T01:21:33.676Z,2.00
2023-01-13T01:24:04.493Z,2.00
2023-01-13T01:26:33.311Z,2.20
2023-01-13T01:29:03.102Z,1.77
2023-01-13T01:31:33.895Z,1.95
2023-01-13T01:34:03.256Z,2.10
2023-01-13T01:36:31.619Z,2.00
2023-01-13T01:39:01.152Z,1.90
2023-01-13T01:41:32.754Z,2.17
2023-01-13T01:44:28.605Z,2.30
2023-01-13T01:46:57.966Z,2.10
2023-01-13T01:49:33.808Z,1.80
2023-01-13T01:52:10.315Z,1.88
2023-01-13T01:55:09.348Z,1.80
2023-01-13T01:57:40.771Z,2.15
2023-01-13T02:00:10.002Z,2.08
2023-01-13T02:02:39.071Z,2.03
2023-01-13T02:05:07.841Z,2.38
2023-01-13T02:07:38.175Z,2.10
2023-01-13T02:10:10.181Z,2.10
2023-01-13T02:12:39.596Z,2.10
2023-01-13T02:15:14.154Z,2.10
2023-01-13T02:20:50.108Z,2.20
2023-01-13T02:23:55.148Z,1.90
2023-01-13T02:26:53.833Z,2.20
2023-01-13T02:30:26.564Z,1.75
2023-01-13T02:33:25.891Z,2.00
2023-01-13T02:36:35.329Z,2.38
2023-01-13T02:39:17.176Z,2.05
2023-01-13T02:42:16.104Z,2.33
2023-01-13T02:44:49.663Z,2.20
2023-01-13T02:47:23.979Z,2.13
2023-01-13T02:49:57.193Z,2.42
2023-01-13T02:52:48.189Z,2.08
2023-01-13T02:55:23.216Z,2.75
2023-01-13T02:57:53.832Z,2.45
2023-01-13T03:00:24.525Z,2.92
2023-01-13T03:02:52.966Z,2.53
2023-01-13T03:05:21.503Z,2.40
2023-01-13T03:08:08.222Z,2.30
2023-01-13T03:10:50.906Z,3.60
2023-01-13T03:13:37.639Z,2.80
2023-01-13T03:16:22.077Z,2.55
2023-01-13T03:19:15.098Z,2.38
2023-01-13T03:22:06.451Z,2.67
2023-01-13T03:24:43.517Z,2.55
2023-01-13T03:27:17.399Z,2.53
2023-01-13T03:30:01.604Z,2.40
2023-01-13T03:32:38.021Z,2.30
2023-01-13T03:35:11.150Z,2.33
2023-01-13T03:37:43.575Z,2.17
2023-01-13T03:40:19.980Z,2.22
2023-01-13T03:43:12.811Z,2.20
2023-01-13T03:45:42.786Z,2.47
2023-01-13T03:48:17.717Z,1.98
2023-01-13T03:50:54.678Z,2.08
2023-01-13T03:53:31.194Z,2.13
2023-01-13T03:56:31.187Z,2.05
2023-01-13T03:59:03.330Z,2.20
2023-01-13T04:01:45.794Z,2.38
2023-01-13T04:04:37.897Z,2.03
2023-01-13T04:07:25.667Z,2.20
2023-01-13T04:10:03.819Z,2.35
2023-01-13T04:13:05.190Z,2.40
2023-01-13T04:15:40.507Z,2.30
2023-01-13T04:18:18.879Z,2.10
2023-01-13T04:20:50.100Z,2.30
2023-01-13T04:23:20.284Z,2.40
2023-01-13T04:25:49.400Z,2.58
2023-01-13T04:28:19.318Z,2.53
2023-01-13T04:30:48.804Z,2.38
2023-01-13T04:33:18.546Z,2.80
2023-01-13T04:35:48.276Z,3.22
2023-01-13T04:38:19.095Z,2.97
2023-01-13T04:40:48.042Z,2.80
2023-01-13T04:43:16.827Z,3.08
2023-01-13T04:45:45.376Z,2.65
2023-01-13T04:48:13.919Z,2.92
2023-01-13T04:50:42.242Z,2.95
2023-01-13T04:53:10.734Z,2.65
2023-01-13T04:55:39.114Z,2.85
2023-01-13T04:58:10.054Z,2.35
2023-01-13T05:00:39.275Z,2.55
2023-01-13T05:03:07.640Z,2.50
2023-01-13T05:05:35.954Z,2.88
2023-01-13T05:08:04.308Z,2.47
2023-01-13T05:10:32.660Z,2.67
2023-01-13T05:13:19.490Z,2.15
2023-01-13T05:16:06.849Z,2.67
2023-01-13T05:18:35.448Z,2.10
2023-01-13T05:21:03.769Z,2.40
2023-01-13T05:23:50.350Z,2.22
2023-01-13T05:26:18.855Z,2.22
2023-01-13T05:28:47.138Z,2.35
2023-01-13T05:31:15.801Z,1.98
2023-01-13T05:33:44.110Z,1.90
2023-01-13T05:36:12.399Z,1.83
2023-01-13T05:38:40.746Z,1.88
2023-01-13T05:41:35.509Z,1.95
2023-01-13T05:44:03.875Z,1.65
2023-01-13T05:46:32.141Z,1.73
2023-01-13T05:49:01.130Z,1.83
2023-01-13T05:51:29.407Z,1.75
2023-01-13T05:53:57.700Z,1.88
2023-01-13T05:56:26.059Z,1.80
2023-01-13T05:58:54.375Z,1.88
2023-01-13T06:01:22.723Z,1.75
2023-01-13T06:03:51.086Z,1.90
2023-01-13T06:06:19.409Z,1.92
2023-01-13T06:08:47.722Z,1.75
2023-01-13T06:11:16.293Z,1.70
2023-01-13T06:13:44.651Z,1.98
2023-01-13T06:16:13.217Z,1.52
2023-01-13T06:18:41.610Z,1.90
2023-01-13T06:21:09.926Z,1.60
2023-01-13T06:23:39.521Z,1.70
2023-01-13T06:26:19.622Z,1.58
2023-01-13T06:28:47.970Z,1.75
2023-01-13T06:31:16.362Z,1.52
2023-01-13T06:33:50.598Z,1.35
2023-01-13T06:36:23.723Z,1.40
2023-01-13T06:38:56.098Z,1.50
2023-01-13T06:41:44.710Z,1.30
2023-01-13T06:44:13.132Z,1.20
2023-01-13T06:46:41.628Z,1.02
2023-01-13T06:49:10.213Z,1.17
2023-01-13T06:51:38.579Z,1.20
2023-01-13T06:54:07.014Z,1.30
2023-01-13T06:56:35.308Z,1.08
2023-01-13T06:59:03.546Z,1.17
2023-01-13T07:01:32.099Z,1.00
2023-01-13T07:04:00.463Z,1.20
2023-01-13T07:06:29.639Z,0.85
2023-01-13T07:08:57.919Z,0.98
2023-01-13T07:11:26.477Z,0.88
2023-01-13T07:14:13.211Z,0.93
2023-01-13T07:16:42.208Z,1.13
2023-01-13T07:19:10.573Z,1.10
2023-01-13T07:21:39.068Z,1.10
2023-01-13T07:24:07.569Z,1.02
2023-01-13T07:26:35.856Z,1.02
2023-01-13T07:29:04.174Z,1.05
2023-01-13T07:31:32.579Z,1.20
2023-01-13T07:34:01.550Z,1.10
2023-01-13T07:36:29.789Z,0.90
2023-01-13T07:38:58.070Z,0.95
2023-01-13T07:41:44.942Z,1.17
2023-01-13T07:44:13.594Z,1.02
2023-01-13T07:46:41.985Z,1.20
2023-01-13T07:49:10.791Z,0.68
2023-01-13T07:51:40.739Z,0.90
2023-01-13T07:54:09.081Z,0.82
2023-01-13T07:56:37.619Z,0.90
2023-01-13T07:59:06.006Z,1.08
2023-01-13T08:01:34.523Z,0.80
2023-01-13T08:04:03.002Z,1.00
2023-01-13T08:06:31.324Z,0.82
2023-01-13T08:09:00.167Z,0.93
2023-01-13T08:11:28.500Z,0.80
2023-01-13T08:13:58.641Z,0.90
2023-01-13T08:16:27.048Z,0.80
2023-01-13T08:18:55.468Z,1.00
2023-01-13T08:21:23.796Z,0.95
2023-01-13T08:23:52.212Z,0.90
2023-01-13T08:26:20.615Z,1.10
2023-01-13T08:28:48.928Z,0.70
2023-01-13T08:31:18.154Z,0.88
2023-01-13T08:33:46.505Z,0.50
2023-01-13T08:36:14.920Z,0.55
2023-01-13T08:38:43.590Z,0.90
2023-01-13T08:41:37.157Z,1.02
2023-01-13T08:44:06.376Z,0.70
2023-01-13T08:46:34.778Z,0.95
2023-01-13T08:49:03.674Z,0.93
2023-01-13T08:51:31.990Z,0.77
2023-01-13T08:54:00.267Z,0.80
2023-01-13T08:56:28.781Z,0.65
2023-01-13T08:58:59.831Z,0.82
2023-01-13T09:01:28.688Z,0.90
2023-01-13T09:03:57.120Z,0.80
2023-01-13T09:06:25.731Z,0.77
2023-01-13T09:08:54.000Z,0.80
2023-01-13T09:11:48.961Z,0.95
2023-01-13T09:14:22.883Z,0.90
2023-01-13T09:16:51.259Z,0.80
2023-01-13T09:19:19.859Z,0.70
2023-01-13T09:21:48.447Z,0.52
2023-01-13T09:24:16.900Z,0.60
2023-01-13T09:26:45.180Z,0.80
2023-01-13T09:29:13.738Z,0.68
2023-01-13T09:31:44.124Z,0.85
2023-01-13T09:34:34.590Z,0.60
2023-01-13T09:37:03.423Z,0.75
2023-01-13T09:39:32.976Z,0.70
2023-01-13T09:42:24.358Z,0.73
2023-01-13T09:45:00.013Z,0.60
2023-01-13T09:47:37.249Z,0.60
2023-01-13T09:50:23.796Z,0.60
2023-01-13T09:52:52.894Z,0.60
2023-01-13T09:55:34.069Z,0.60
2023-01-13T09:58:15.166Z,0.90
2023-01-13T10:00:51.966Z,0.80
2023-01-13T10:03:22.208Z,0.73
2023-01-13T10:06:47.845Z,0.80
2023-01-13T10:09:52.558Z,0.93
2023-01-13T10:12:44.644Z,0.93
2023-01-13T10:15:18.480Z,0.75
2023-01-13T10:18:14.622Z,0.82
2023-01-13T10:21:14.494Z,0.70
2023-01-13T10:23:59.396Z,0.55
2023-01-13T10:29:28.742Z,1.08
2023-01-13T10:31:58.634Z,0.80
2023-01-13T10:34:28.318Z,0.60
2023-01-13T10:37:07.457Z,0.50
2023-01-13T10:39:44.932Z,0.63
2023-01-13T10:42:23.007Z,0.90
2023-01-13T10:44:56.667Z,0.77
2023-01-13T10:47:29.003Z,0.80
2023-01-13T10:50:14.114Z,0.73
2023-01-13T10:53:03.734Z,0.60
2023-01-13T10:55:35.396Z,0.68
2023-01-13T10:58:22.700Z,0.85
2023-01-13T11:01:01.802Z,0.60
2023-01-13T11:03:50.253Z,0.70
2023-01-13T11:06:31.040Z,0.85
2023-01-13T11:09:00.170Z,0.70
2023-01-13T11:11:48.324Z,0.60
2023-01-13T11:14:37.898Z,0.73
2023-01-13T11:17:46.343Z,0.60
2023-01-13T11:20:21.806Z,0.70
2023-01-13T11:22:58.404Z,0.70
2023-01-13T11:25:42.321Z,0.75
2023-01-13T11:28:36.764Z,0.80
2023-01-13T11:31:25.426Z,1.03
2023-01-13T11:34:20.733Z,0.70
2023-01-13T11:36:53.462Z,0.65
2023-01-13T11:39:35.406Z,0.88
2023-01-13T11:42:23.200Z,0.60
2023-01-13T11:45:08.445Z,0.80
2023-01-13T11:47:37.704Z,0.73
2023-01-13T11:50:20.483Z,0.80
2023-01-13T11:53:07.285Z,0.75
2023-01-13T11:56:07.617Z,0.65
2023-01-13T11:58:51.391Z,0.75
2023-01-13T12:01:36.623Z,1.10
2023-01-13T12:04:34.095Z,0.80
2023-01-13T12:07:33.828Z,0.60
2023-01-13T12:10:03.536Z,0.80
2023-01-13T12:12:48.314Z,0.82
2023-01-13T12:15:23.156Z,0.80
2023-01-13T12:18:09.428Z,0.85
2023-01-13T12:21:14.672Z,1.00
2023-01-13T12:23:48.499Z,0.93
2023-01-13T12:26:19.024Z,0.70
2023-01-13T12:29:16.971Z,0.93
2023-01-13T12:31:48.618Z,1.20
2023-01-13T12:34:34.063Z,0.60
2023-01-13T12:37:18.920Z,1.00
2023-01-13T12:39:56.284Z,0.60
2023-01-13T12:42:58.693Z,0.70
2023-01-13T12:45:31.427Z,0.60
2023-01-13T12:48:02.081Z,0.68
2023-01-13T12:50:31.529Z,1.00
2023-01-13T12:53:02.777Z,0.93
2023-01-13T12:55:38.030Z,0.77
2023-01-13T12:58:10.403Z,0.75
2023-01-13T13:00:42.671Z,0.63
2023-01-13T13:03:19.479Z,0.77
2023-01-13T13:06:16.691Z,0.60
2023-01-13T13:09:06.077Z,0.57
2023-01-13T13:12:00.733Z,0.60
2023-01-13T13:14:41.410Z,0.70
2023-01-13T13:17:30.622Z,0.57
2023-01-13T13:20:01.084Z,0.60
2023-01-13T13:22:29.309Z,1.15
2023-01-13T13:24:58.456Z,0.60
2023-01-13T13:27:38.363Z,0.85
2023-01-13T13:30:19.380Z,0.68
2023-01-13T13:33:05.723Z,0.80
2023-01-13T13:36:00.239Z,0.63
2023-01-13T13:39:20.489Z,0.88
2023-01-13T13:42:09.853Z,0.73
2023-01-13T13:45:02.398Z,0.60
2023-01-13T13:47:38.678Z,0.70
2023-01-13T13:50:14.528Z,0.77
2023-01-13T13:52:59.989Z,0.80
2023-01-13T13:55:30.527Z,0.70
2023-01-13T13:58:00.282Z,0.80
2023-01-13T14:00:35.118Z,0.60
2023-01-13T14:03:05.386Z,0.90
2023-01-13T14:05:38.082Z,0.75
2023-01-13T14:08:19.502Z,0.43
2023-01-13T14:10:47.941Z,0.90
2023-01-13T14:13:31.216Z,0.82
2023-01-13T14:16:12.320Z,0.60
2023-01-13T14:18:49.013Z,0.93
2023-01-13T14:21:25.351Z,0.50
2023-01-13T14:24:21.921Z,1.00
2023-01-13T14:26:54.077Z,0.80
2023-01-13T14:29:24.870Z,0.80
2023-01-13T14:31:55.409Z,0.90
2023-01-13T14:34:32.126Z,0.65
2023-01-13T14:37:02.126Z,0.93
2023-01-13T14:39:40.732Z,0.80
2023-01-13T14:42:15.025Z,0.80
2023-01-13T14:44:47.732Z,0.80
2023-01-13T14:47:22.247Z,0.63
2023-01-13T14:50:19.512Z,0.50
2023-01-13T14:52:57.743Z,0.50
2023-01-13T14:55:42.605Z,0.70
2023-01-13T14:58:23.212Z,0.80
2023-01-13T15:00:52.908Z,0.73
2023-01-13T15:03:22.554Z,0.75
2023-01-13T15:05:53.730Z,0.80
2023-01-13T15:08:33.980Z,0.80
2023-01-13T15:11:25.711Z,0.70
2023-01-13T15:14:02.252Z,0.52
2023-01-13T15:16:34.828Z,0.93
2023-01-13T15:19:04.328Z,0.80
2023-01-13T15:21:32.610Z,0.98
2023-01-13T15:24:00.955Z,0.60
2023-01-13T15:26:31.098Z,0.88
2023-01-13T15:29:01.608Z,1.00
2023-01-13T15:31:30.440Z,0.50
2023-01-13T15:34:00.155Z,0.70
2023-01-13T15:36:31.847Z,0.80
2023-01-13T15:39:01.731Z,0.60
2023-01-13T15:41:48.322Z,0.80
2023-01-13T15:44:36.053Z,0.75
2023-01-13T15:47:08.686Z,0.80
2023-01-13T15:49:39.142Z,0.82
2023-01-13T15:52:24.883Z,0.70
2023-01-13T15:54:54.119Z,0.98
2023-01-13T15:57:28.870Z,0.77
2023-01-13T16:00:13.168Z,0.73
2023-01-13T16:02:41.539Z,0.63
2023-01-13T16:05:09.957Z,0.88
2023-01-13T16:07:38.669Z,0.57
2023-01-13T16:10:16.013Z,0.70
2023-01-13T16:12:44.492Z,0.65
2023-01-13T16:15:23.120Z,0.63
2023-01-13T16:17:57.974Z,0.73
2023-01-13T16:20:27.012Z,1.23
2023-01-13T16:22:55.270Z,0.70
2023-01-13T16:25:28.263Z,0.77
2023-01-13T16:27:56.610Z,0.40
2023-01-13T16:30:31.847Z,0.50
2023-01-13T16:33:00.189Z,0.60
2023-01-13T16:35:29.852Z,0.63
2023-01-13T16:37:59.330Z,0.57
2023-01-13T16:40:31.305Z,0.70
2023-01-13T16:43:01.606Z,0.70
2023-01-13T16:45:30.240Z,0.63
2023-01-13T16:47:58.598Z,0.60
2023-01-13T16:50:34.737Z,0.60
2023-01-13T16:53:03.920Z,1.00
2023-01-13T16:55:32.373Z,0.98
2023-01-13T16:58:00.639Z,0.90
2023-01-13T17:00:29.328Z,0.82
2023-01-13T17:03:02.041Z,0.80
2023-01-13T17:05:30.437Z,0.82
2023-01-13T17:07:58.792Z,0.60
2023-01-13T17:10:27.384Z,0.93
2023-01-13T17:12:56.110Z,0.98
2023-01-13T17:15:25.520Z,0.98
2023-01-13T17:17:56.063Z,0.77
2023-01-13T17:20:24.347Z,0.80
2023-01-13T17:22:58.275Z,0.90
2023-01-13T17:25:27.477Z,0.60
2023-01-13T17:27:55.760Z,0.98
2023-01-13T17:30:24.107Z,0.60
2023-01-13T17:32:52.394Z,0.57
2023-01-13T17:35:25.570Z,0.60
2023-01-13T17:37:54.897Z,0.50
2023-01-13T17:40:23.478Z,0.40
2023-01-13T17:42:51.837Z,0.50
2023-01-13T17:45:20.144Z,0.93
2023-01-13T17:47:48.441Z,0.90
2023-01-13T17:50:18.595Z,0.60
2023-01-13T17:52:46.865Z,0.77
2023-01-13T17:55:15.184Z,0.80
2023-01-13T17:57:43.462Z,0.68
2023-01-13T18:00:13.285Z,0.60
2023-01-13T18:02:41.680Z,0.70
2023-01-13T18:05:10.357Z,0.70
2023-01-13T18:07:38.641Z,0.60
2023-01-13T18:10:07.360Z,0.90
2023-01-13T18:12:35.877Z,0.60
2023-01-13T18:15:04.259Z,0.77
2023-01-13T18:17:32.529Z,0.60
2023-01-13T18:20:18.988Z,0.70
2023-01-13T18:23:05.517Z,0.70
2023-01-13T18:25:52.252Z,0.60
2023-01-13T18:28:20.549Z,0.90
2023-01-13T18:30:49.492Z,0.77
2023-01-13T18:33:17.809Z,0.90
2023-01-13T18:35:46.057Z,1.17
2023-01-13T18:38:24.264Z,1.10
2023-01-13T18:40:52.567Z,1.00
2023-01-13T18:43:20.858Z,1.00
2023-01-13T18:45:52.293Z,1.05
2023-01-13T18:48:20.703Z,0.82
2023-01-13T18:50:48.950Z,0.98
2023-01-13T18:53:17.215Z,0.60
2023-01-13T18:55:46.108Z,0.80
2023-01-13T18:58:14.491Z,1.10
2023-01-13T19:00:42.758Z,0.80
2023-01-13T19:03:11.033Z,0.63
2023-01-13T19:05:39.329Z,0.80
2023-01-13T19:08:07.976Z,0.60
2023-01-13T19:10:38.411Z,0.98
2023-01-13T19:13:06.692Z,0.60
2023-01-13T19:15:38.342Z,0.70
2023-01-13T19:18:06.747Z,1.00
2023-01-13T19:20:35.013Z,0.90
2023-01-13T19:23:03.317Z,0.90
2023-01-13T19:25:31.676Z,0.95
2023-01-13T19:27:59.962Z,1.02
2023-01-13T19:30:28.325Z,0.80
2023-01-13T19:32:57.185Z,0.65
2023-01-13T19:35:25.528Z,0.95
2023-01-13T19:37:54.779Z,0.90
2023-01-13T19:40:27.405Z,0.80
2023-01-13T19:43:13.848Z,1.10
2023-01-13T19:45:42.172Z,0.80
2023-01-13T19:48:10.503Z,0.90
2023-01-13T19:50:42.213Z,1.02
2023-01-13T19:53:18.495Z,1.00
2023-01-13T19:55:49.410Z,0.95
2023-01-13T19:58:23.998Z,0.80
2023-01-13T20:03:27.795Z,0.95
2023-01-13T20:05:56.249Z,1.00
2023-01-13T20:08:24.631Z,0.80
2023-01-13T20:11:12.769Z,1.38
2023-01-13T20:13:41.030Z,1.00
2023-01-13T20:16:09.868Z,1.05
2023-01-13T20:18:38.278Z,1.38
2023-01-13T20:21:07.962Z,0.77
2023-01-13T20:23:36.896Z,0.98
2023-01-13T20:26:09.233Z,0.90
2023-01-13T20:28:39.716Z,0.82
2023-01-13T20:31:12.962Z,1.33
2023-01-13T20:33:41.989Z,1.13
2023-01-13T20:36:27.187Z,1.10
2023-01-13T20:39:02.991Z,0.70
2023-01-13T20:41:49.337Z,0.88
2023-01-13T20:44:17.803Z,1.80
2023-01-13T20:46:46.586Z,1.02
2023-01-13T20:49:16.468Z,1.10
2023-01-13T20:51:44.821Z,0.80
2023-01-13T20:54:13.171Z,1.10
2023-01-13T20:56:41.802Z,1.00
2023-01-13T20:59:10.810Z,1.10
2023-01-13T21:01:39.429Z,0.68
2023-01-13T21:04:08.817Z,1.00
2023-01-13T21:06:37.195Z,0.90
2023-01-13T21:09:05.647Z,0.57
2023-01-13T21:11:51.991Z,1.17
2023-01-13T21:14:41.880Z,0.93
2023-01-13T21:17:32.181Z,0.73
2023-01-13T21:20:01.081Z,0.80
2023-01-13T21:22:30.729Z,0.75
2023-01-13T21:24:59.404Z,1.00
2023-01-13T21:27:27.845Z,1.05
2023-01-13T21:29:56.267Z,0.90
2023-01-13T21:32:25.084Z,0.80
2023-01-13T21:34:53.368Z,0.90
2023-01-13T21:37:21.754Z,0.93
2023-01-13T21:39:50.112Z,0.60
2023-01-13T21:42:37.078Z,0.70
2023-01-13T21:45:24.086Z,0.82
2023-01-13T21:47:52.936Z,0.60
2023-01-13T21:50:23.364Z,0.85
2023-01-13T21:52:53.527Z,0.60
2023-01-13T21:55:29.264Z,0.63
2023-01-13T21:57:59.883Z,0.50
2023-01-13T22:00:30.933Z,0.63
2023-01-13T22:03:01.967Z,0.50
2023-01-13T22:05:30.504Z,0.52
2023-01-13T22:07:58.854Z,0.80
2023-01-13T22:10:30.725Z,0.50
2023-01-13T22:13:01.186Z,0.70
2023-01-13T22:15:32.043Z,0.90
2023-01-13T22:18:01.039Z,0.75
2023-01-13T22:20:29.293Z,0.82
2023-01-13T22:22:59.049Z,0.70
2023-01-13T22:25:27.785Z,0.75
2023-01-13T22:28:04.341Z,0.77
2023-01-13T22:30:33.423Z,0.60
2023-01-13T22:33:02.062Z,0.73
2023-01-13T22:35:30.397Z,0.80
2023-01-13T22:37:59.780Z,0.80
2023-01-13T22:40:28.240Z,0.90
2023-01-13T22:42:56.495Z,0.98
2023-01-13T22:45:24.744Z,0.88
2023-01-13T22:47:53.051Z,1.02
2023-01-13T22:50:23.588Z,1.10
2023-01-13T22:52:51.889Z,0.75
2023-01-13T22:55:20.269Z,0.70
2023-01-13T22:57:48.673Z,0.50
2023-01-13T23:00:19.685Z,0.80
2023-01-13T23:02:48.449Z,0.80
2023-01-13T23:05:16.803Z,0.80
2023-01-13T23:07:45.122Z,0.70
2023-01-13T23:10:13.464Z,0.85
2023-01-13T23:12:41.803Z,0.70
2023-01-13T23:15:10.617Z,0.70
2023-01-13T23:17:38.903Z,0.60
2023-01-13T23:20:07.470Z,0.82
2023-01-13T23:22:39.451Z,0.70
2023-01-13T23:25:08.704Z,1.25
2023-01-13T23:27:37.561Z,1.23
2023-01-13T23:30:08.557Z,0.95
2023-01-13T23:32:37.587Z,0.65
2023-01-13T23:35:06.205Z,1.00
2023-01-13T23:37:35.243Z,1.10
2023-01-13T23:40:03.920Z,1.10
2023-01-13T23:42:32.548Z,0.80
2023-01-13T23:45:00.864Z,1.20
2023-01-13T23:47:29.813Z,1.30
2023-01-13T23:49:58.183Z,1.30
2023-01-13T23:52:26.559Z,0.90
2023-01-13T23:54:54.871Z,1.05
2023-01-13T23:57:23.172Z,1.30
2023-01-13T23:59:51.450Z,1.08
